createdAt,value
2019-01-15T00:01:49.584Z,5.47
2019-01-15T00:04:20.510Z,2.97
2019-01-15T00:06:51.430Z,2.50
2019-01-15T00:09:22.154Z,3.80
2019-01-15T00:11:53.030Z,3.93
2019-01-15T00:14:23.861Z,3.43
2019-01-15T00:16:54.539Z,5.00
2019-01-15T00:19:25.426Z,5.17
2019-01-15T00:21:56.108Z,3.43
2019-01-15T00:24:26.863Z,6.37
2019-01-15T00:26:57.406Z,4.40
2019-01-15T00:29:27.877Z,3.07
2019-01-15T00:31:58.388Z,3.40
2019-01-15T00:34:28.877Z,3.97
2019-01-15T00:36:59.473Z,8.57
2019-01-15T00:39:29.945Z,3.50
2019-01-15T00:42:00.465Z,7.47
2019-01-15T00:44:30.996Z,5.83
2019-01-15T00:47:01.765Z,4.10
2019-01-15T00:49:32.239Z,3.63
2019-01-15T00:52:02.825Z,5.37
2019-01-15T00:54:33.296Z,3.83
2019-01-15T00:57:03.925Z,4.03
2019-01-15T00:59:34.477Z,3.27
2019-01-15T01:02:05.165Z,3.40
2019-01-15T01:04:35.737Z,3.30
2019-01-15T01:07:06.541Z,3.20
2019-01-15T01:09:37.001Z,3.83
2019-01-15T01:12:07.537Z,3.70
2019-01-15T01:14:38.062Z,4.60
2019-01-15T01:17:08.578Z,3.70
2019-01-15T01:19:39.113Z,5.00
2019-01-15T01:22:09.709Z,3.30
2019-01-15T01:24:40.212Z,7.57
2019-01-15T01:27:10.846Z,6.60
2019-01-15T01:29:41.321Z,5.60
2019-01-15T01:32:12.551Z,6.60
2019-01-15T01:34:43.020Z,4.60
2019-01-15T01:37:13.575Z,5.20
2019-01-15T01:39:44.059Z,5.40
2019-01-15T01:42:14.673Z,5.23
2019-01-15T01:44:45.465Z,6.00
2019-01-15T01:47:16.403Z,3.67
2019-01-15T01:49:47.032Z,4.23
2019-01-15T01:52:17.818Z,3.77
2019-01-15T01:54:48.606Z,4.43
2019-01-15T01:57:19.518Z,6.13
2019-01-15T01:59:50.339Z,4.50
2019-01-15T02:02:21.242Z,3.90
2019-01-15T02:04:51.715Z,5.23
2019-01-15T02:07:22.426Z,4.67
2019-01-15T02:09:52.895Z,3.73
2019-01-15T02:12:23.531Z,3.90
2019-01-15T02:14:54.115Z,4.33
2019-01-15T02:17:24.652Z,3.10
2019-01-15T02:19:55.139Z,5.73
2019-01-15T02:22:25.684Z,3.67
2019-01-15T02:24:56.164Z,3.27
2019-01-15T02:27:27.972Z,3.77
2019-01-15T02:29:58.444Z,3.50
2019-01-15T02:32:29.013Z,4.50
2019-01-15T02:34:59.499Z,3.47
2019-01-15T02:37:30.599Z,5.10
2019-01-15T02:40:01.504Z,5.53
2019-01-15T02:42:32.190Z,2.77
2019-01-15T02:45:02.835Z,6.17
2019-01-15T02:47:34.350Z,4.40
2019-01-15T02:50:05.944Z,3.57
2019-01-15T02:52:36.754Z,3.13
2019-01-15T02:55:08.542Z,4.63
2019-01-15T02:57:39.322Z,4.57
2019-01-15T03:00:16.759Z,7.00
2019-01-15T03:02:47.967Z,4.30
2019-01-15T03:05:19.054Z,3.70
2019-01-15T03:07:50.348Z,3.30
2019-01-15T03:10:21.770Z,2.73
2019-01-15T03:12:56.412Z,2.47
2019-01-15T03:15:26.387Z,3.93
2019-01-15T03:17:57.315Z,2.83
2019-01-15T03:20:28.096Z,3.63
2019-01-15T03:22:58.878Z,3.83
2019-01-15T03:25:29.628Z,5.33
2019-01-15T03:28:00.554Z,3.03
2019-01-15T03:30:31.404Z,5.70
2019-01-15T03:33:02.300Z,4.83
2019-01-15T03:35:33.073Z,2.30
2019-01-15T03:38:03.973Z,3.47
2019-01-15T03:40:34.890Z,2.73
2019-01-15T03:43:05.961Z,2.33
2019-01-15T03:45:36.736Z,2.50
2019-01-15T03:48:08.003Z,2.67
2019-01-15T03:50:38.650Z,1.80
2019-01-15T03:53:09.722Z,4.70
2019-01-15T03:55:40.515Z,2.47
2019-01-15T03:58:11.267Z,2.90
2019-01-15T04:00:42.162Z,4.63
2019-01-15T04:03:13.430Z,3.00
2019-01-15T04:05:44.172Z,3.27
2019-01-15T04:08:15.456Z,2.07
2019-01-15T04:10:46.221Z,3.77
2019-01-15T04:13:17.381Z,3.20
2019-01-15T04:15:48.137Z,3.20
2019-01-15T04:18:18.919Z,2.80
2019-01-15T04:20:49.709Z,3.00
2019-01-15T04:23:20.564Z,3.67
2019-01-15T04:25:51.440Z,3.03
2019-01-15T04:28:22.243Z,5.43
2019-01-15T04:30:53.020Z,3.40
2019-01-15T04:33:24.103Z,3.03
2019-01-15T04:35:55.022Z,3.67
2019-01-15T04:38:25.814Z,2.60
2019-01-15T04:40:56.593Z,3.20
2019-01-15T04:43:27.352Z,4.23
2019-01-15T04:45:58.026Z,4.43
2019-01-15T04:48:29.018Z,5.40
2019-01-15T04:51:00.007Z,3.77
2019-01-15T04:53:30.544Z,3.70
2019-01-15T04:56:01.114Z,3.43
2019-01-15T04:58:31.646Z,4.20
2019-01-15T05:01:02.114Z,4.67
2019-01-15T05:03:33.014Z,4.03
2019-01-15T05:06:03.613Z,3.93
2019-01-15T05:08:34.264Z,3.53
2019-01-15T05:11:04.742Z,3.40
2019-01-15T05:13:35.267Z,2.60
2019-01-15T05:16:05.733Z,2.90
2019-01-15T05:18:36.282Z,4.10
2019-01-15T05:21:06.762Z,4.13
2019-01-15T05:23:37.866Z,3.13
2019-01-15T05:26:08.784Z,2.80
2019-01-15T05:28:39.776Z,3.43
2019-01-15T05:31:10.619Z,3.73
2019-01-15T05:33:41.427Z,3.97
2019-01-15T05:36:12.186Z,4.53
2019-01-15T05:38:42.969Z,3.63
2019-01-15T05:41:13.653Z,4.10
2019-01-15T05:43:44.532Z,9.90
2019-01-15T05:46:15.172Z,4.13
2019-01-15T05:48:46.462Z,3.33
2019-01-15T05:51:30.942Z,4.13
2019-01-15T05:54:01.505Z,3.80
2019-01-15T05:56:33.352Z,4.53
2019-01-15T05:59:04.249Z,4.00
2019-01-15T06:01:35.107Z,3.27
2019-01-15T06:04:06.370Z,3.10
2019-01-15T06:06:37.119Z,4.80
2019-01-15T06:09:10.428Z,3.83
2019-01-15T06:11:41.215Z,5.33
2019-01-15T06:14:11.801Z,4.67
2019-01-15T06:16:42.269Z,4.60
2019-01-15T06:19:16.336Z,5.60
2019-01-15T06:21:47.263Z,6.57
2019-01-15T06:24:18.234Z,5.17
2019-01-15T06:26:49.257Z,3.60
2019-01-15T06:29:20.286Z,5.67
2019-01-15T06:31:51.216Z,9.23
2019-01-15T06:34:22.313Z,5.77
2019-01-15T06:36:53.082Z,4.80
2019-01-15T06:39:24.085Z,7.80
2019-01-15T06:41:54.966Z,4.50
2019-01-15T06:44:26.031Z,5.93
2019-01-15T06:46:56.964Z,6.43
2019-01-15T06:49:28.045Z,5.60
2019-01-15T06:51:58.927Z,5.17
2019-01-15T06:54:29.834Z,4.53
2019-01-15T06:57:00.711Z,6.73
2019-01-15T06:59:31.613Z,4.53
2019-01-15T07:02:02.394Z,7.03
2019-01-15T07:04:33.387Z,5.03
2019-01-15T07:07:04.461Z,5.50
2019-01-15T07:09:35.446Z,4.40
2019-01-15T07:12:06.589Z,5.37
2019-01-15T07:14:37.627Z,4.60
2019-01-15T07:17:08.438Z,6.60
2019-01-15T07:19:39.593Z,5.20
2019-01-15T07:22:10.407Z,5.63
2019-01-15T07:24:41.374Z,5.40
2019-01-15T07:27:12.178Z,3.90
2019-01-15T07:29:43.082Z,5.70
2019-01-15T07:32:14.069Z,6.33
2019-01-15T07:34:45.150Z,10.43
2019-01-15T07:37:16.027Z,7.43
2019-01-15T07:39:46.977Z,5.20
2019-01-15T07:42:17.928Z,10.43
2019-01-15T07:44:48.921Z,3.83
2019-01-15T07:47:19.810Z,6.37
2019-01-15T07:49:50.746Z,3.57
2019-01-15T07:52:21.724Z,4.57
2019-01-15T07:54:52.958Z,3.53
2019-01-15T07:57:23.658Z,5.70
2019-01-15T07:59:54.543Z,7.07
2019-01-15T08:02:25.320Z,4.07
2019-01-15T08:04:56.379Z,5.20
2019-01-15T08:07:27.197Z,3.90
2019-01-15T08:09:58.097Z,4.50
2019-01-15T08:12:28.882Z,4.57
2019-01-15T08:15:00.100Z,6.07
2019-01-15T08:17:30.945Z,4.30
2019-01-15T08:20:01.831Z,5.93
2019-01-15T08:22:32.638Z,4.00
2019-01-15T08:25:05.139Z,5.73
2019-01-15T08:27:35.998Z,5.43
2019-01-15T08:30:12.916Z,4.53
2019-01-15T08:32:43.918Z,4.90
2019-01-15T08:35:15.798Z,4.53
2019-01-15T08:37:46.861Z,5.03
2019-01-15T08:40:17.812Z,5.83
2019-01-15T08:42:49.366Z,8.73
2019-01-15T08:45:20.494Z,7.63
2019-01-15T08:47:53.314Z,7.07
2019-01-15T08:50:26.685Z,9.00
2019-01-15T08:52:57.668Z,7.07
2019-01-15T08:55:28.446Z,7.93
2019-01-15T08:57:59.428Z,7.60
2019-01-15T09:00:30.426Z,4.67
2019-01-15T09:03:01.584Z,4.63
2019-01-15T09:05:32.528Z,5.37
2019-01-15T09:08:03.592Z,4.00
2019-01-15T09:10:34.571Z,7.60
2019-01-15T09:13:05.780Z,4.30
2019-01-15T09:15:36.564Z,4.43
2019-01-15T09:18:07.847Z,4.67
2019-01-15T09:20:38.748Z,4.37
2019-01-15T09:23:09.562Z,4.87
2019-01-15T09:25:40.441Z,13.20
2019-01-15T09:28:11.422Z,9.10
2019-01-15T09:30:42.301Z,5.67
2019-01-15T09:33:13.345Z,5.73
2019-01-15T09:35:44.191Z,5.63
2019-01-15T09:38:15.573Z,5.40
2019-01-15T09:40:46.460Z,5.93
2019-01-15T09:43:17.546Z,4.70
2019-01-15T09:45:48.358Z,8.50
2019-01-15T09:48:24.237Z,4.13
2019-01-15T09:50:55.206Z,5.03
2019-01-15T09:53:26.126Z,6.10
2019-01-15T09:55:58.122Z,9.83
2019-01-15T09:58:29.301Z,7.53
2019-01-15T10:01:00.238Z,6.00
2019-01-15T10:03:31.235Z,4.40
2019-01-15T10:06:02.099Z,5.83
2019-01-15T10:08:33.068Z,6.80
2019-01-15T10:11:03.970Z,4.47
2019-01-15T10:13:34.971Z,6.93
2019-01-15T10:16:06.074Z,6.07
2019-01-15T10:18:37.049Z,5.37
2019-01-15T10:21:07.750Z,11.93
2019-01-15T10:23:38.724Z,10.17
2019-01-15T10:26:09.418Z,7.37
2019-01-15T10:28:40.701Z,5.00
2019-01-15T10:31:51.425Z,6.77
2019-01-15T10:34:27.074Z,7.43
2019-01-15T10:36:55.862Z,8.63
2019-01-15T10:39:26.826Z,8.80
2019-01-15T10:41:57.797Z,9.27
2019-01-15T10:44:28.587Z,8.53
2019-01-15T10:46:59.847Z,7.77
2019-01-15T10:49:30.756Z,7.10
2019-01-15T10:52:02.214Z,7.53
2019-01-15T10:54:33.047Z,9.50
2019-01-15T10:57:04.034Z,10.23
2019-01-15T10:59:36.099Z,9.67
2019-01-15T11:02:06.980Z,6.80
2019-01-15T11:04:37.916Z,8.87
2019-01-15T11:07:08.969Z,14.23
2019-01-15T11:09:39.814Z,9.80
2019-01-15T11:12:10.758Z,12.40
2019-01-15T11:14:42.101Z,8.73
2019-01-15T11:17:13.027Z,6.67
2019-01-15T11:19:43.872Z,9.93
2019-01-15T11:22:14.852Z,6.83
2019-01-15T11:24:45.758Z,10.60
2019-01-15T11:27:16.604Z,9.00
2019-01-15T11:29:47.479Z,7.23
2019-01-15T11:32:18.246Z,8.77
2019-01-15T11:34:49.150Z,5.23
2019-01-15T11:37:20.130Z,7.50
2019-01-15T11:39:51.033Z,5.70
2019-01-15T11:42:21.917Z,3.80
2019-01-15T11:44:52.901Z,4.27
2019-01-15T11:47:23.576Z,4.33
2019-01-15T11:49:54.620Z,5.30
2019-01-15T11:52:25.369Z,6.50
2019-01-15T11:54:56.638Z,5.50
2019-01-15T11:57:27.529Z,4.83
2019-01-15T11:59:58.797Z,8.20
2019-01-15T12:03:03.719Z,4.23
2019-01-15T12:05:56.266Z,8.17
2019-01-15T12:08:45.122Z,5.17
2019-01-15T12:11:33.879Z,6.07
2019-01-15T12:14:18.540Z,4.63
2019-01-15T12:17:17.640Z,4.97
2019-01-15T12:20:22.585Z,6.70
2019-01-15T12:23:15.529Z,7.37
2019-01-15T12:25:57.037Z,4.40
2019-01-15T12:28:40.857Z,5.63
2019-01-15T12:31:34.016Z,6.23
2019-01-15T12:34:24.104Z,5.87
2019-01-15T12:37:12.862Z,5.37
2019-01-15T12:40:02.129Z,6.63
2019-01-15T12:43:10.661Z,4.40
2019-01-15T12:45:59.713Z,9.43
2019-01-15T12:48:48.171Z,6.27
2019-01-15T12:51:32.721Z,16.10
2019-01-15T12:54:26.602Z,12.70
2019-01-15T12:57:19.316Z,9.70
2019-01-15T13:00:05.653Z,9.73
2019-01-15T13:03:02.080Z,6.70
2019-01-15T13:05:58.008Z,11.23
2019-01-15T13:08:57.206Z,7.60
2019-01-15T13:11:53.130Z,8.20
2019-01-15T13:14:45.984Z,10.60
2019-01-15T13:17:38.732Z,5.50
2019-01-15T13:20:29.742Z,4.40
2019-01-15T13:23:11.145Z,6.40
2019-01-15T13:25:59.779Z,7.00
2019-01-15T13:29:01.865Z,5.40
2019-01-15T13:31:50.502Z,7.83
2019-01-15T13:34:40.385Z,4.50
2019-01-15T13:37:28.732Z,5.80
2019-01-15T13:40:24.451Z,5.90
2019-01-15T13:43:13.002Z,3.50
2019-01-15T13:46:09.340Z,8.07
2019-01-15T13:48:57.990Z,5.53
2019-01-15T13:51:53.819Z,9.97
2019-01-15T13:54:41.135Z,4.90
2019-01-15T13:57:29.835Z,6.00
2019-01-15T14:00:18.136Z,5.93
2019-01-15T14:03:13.857Z,6.50
2019-01-15T14:06:09.678Z,6.90
2019-01-15T14:09:14.784Z,7.73
2019-01-15T14:12:05.167Z,3.50
2019-01-15T14:14:53.662Z,4.27
2019-01-15T14:17:47.846Z,11.47
2019-01-15T14:20:46.335Z,10.30
2019-01-15T14:23:33.143Z,17.60
2019-01-15T14:26:23.024Z,10.97
2019-01-15T14:29:13.009Z,7.10
2019-01-15T14:32:01.765Z,4.67
2019-01-15T14:35:10.741Z,7.03
2019-01-15T14:38:12.175Z,6.03
2019-01-15T14:41:07.579Z,3.60
2019-01-15T14:43:55.844Z,4.20
2019-01-15T14:46:40.004Z,3.77
2019-01-15T14:49:32.278Z,5.13
2019-01-15T14:52:35.029Z,5.50
2019-01-15T14:55:31.580Z,7.73
2019-01-15T14:58:30.324Z,10.23
2019-01-15T15:01:25.521Z,3.00
2019-01-15T15:04:14.997Z,4.10
2019-01-15T15:07:00.385Z,5.53
2019-01-15T15:09:48.285Z,3.57
2019-01-15T15:12:46.966Z,4.57
2019-01-15T15:15:35.884Z,3.47
2019-01-15T15:18:28.129Z,3.67
2019-01-15T15:21:23.773Z,3.37
2019-01-15T15:24:11.831Z,4.67
2019-01-15T15:27:10.452Z,8.10
2019-01-15T15:30:17.993Z,3.20
2019-01-15T15:33:16.440Z,5.53
2019-01-15T15:36:05.877Z,3.10
2019-01-15T15:38:58.000Z,3.13
2019-01-15T15:41:56.490Z,3.30
2019-01-15T15:45:04.061Z,5.80
2019-01-15T15:47:51.143Z,4.37
2019-01-15T15:50:32.829Z,2.57
2019-01-15T15:53:28.282Z,5.17
2019-01-15T15:56:16.729Z,3.73
2019-01-15T15:59:21.220Z,4.10
2019-01-15T16:02:08.181Z,6.00
2019-01-15T16:04:56.644Z,4.50
2019-01-15T16:07:44.962Z,3.90
2019-01-15T16:10:27.040Z,4.40
2019-01-15T16:13:15.525Z,4.73
2019-01-15T16:16:03.817Z,7.87
2019-01-15T16:18:56.065Z,3.70
2019-01-15T16:22:03.780Z,5.80
2019-01-15T16:24:53.353Z,4.47
2019-01-15T16:27:42.793Z,5.10
2019-01-15T16:30:33.613Z,5.10
2019-01-15T16:33:32.206Z,4.53
2019-01-15T16:36:29.138Z,6.70
2019-01-15T16:39:27.963Z,4.03
2019-01-15T16:42:20.674Z,6.00
2019-01-15T16:45:09.329Z,13.23
2019-01-15T16:48:14.877Z,4.87
2019-01-15T16:50:58.412Z,6.77
2019-01-15T16:53:49.011Z,7.63
2019-01-15T16:56:44.895Z,6.17
2019-01-15T16:59:41.270Z,5.77
2019-01-15T17:02:29.721Z,5.50
2019-01-15T17:05:37.726Z,4.70
2019-01-15T17:08:39.559Z,5.27
2019-01-15T17:11:39.304Z,4.43
2019-01-15T17:14:27.470Z,7.53
2019-01-15T17:17:15.795Z,7.13
2019-01-15T17:20:14.480Z,6.70
2019-01-15T17:23:01.498Z,7.40
2019-01-15T17:25:49.858Z,5.73
2019-01-15T17:28:34.811Z,8.53
2019-01-15T17:31:23.670Z,7.07
2019-01-15T17:34:20.107Z,7.90
2019-01-15T17:37:28.320Z,7.73
2019-01-15T17:40:29.830Z,7.17
2019-01-15T17:43:20.679Z,8.57
2019-01-15T17:46:11.908Z,10.60
2019-01-15T17:49:04.441Z,6.70
2019-01-15T17:51:52.889Z,7.60
2019-01-15T17:54:40.723Z,7.03
2019-01-15T17:57:36.648Z,7.30
2019-01-15T18:00:37.906Z,8.60
2019-01-15T18:03:39.661Z,7.70
2019-01-15T18:06:35.276Z,6.80
2019-01-15T18:09:36.773Z,7.53
2019-01-15T18:12:22.003Z,9.17
2019-01-15T18:15:17.953Z,9.57
2019-01-15T18:18:07.713Z,8.50
2019-01-15T18:20:46.430Z,8.30
2019-01-15T18:23:45.183Z,7.00
2019-01-15T18:26:50.157Z,8.17
2019-01-15T18:29:27.342Z,6.20
2019-01-15T18:32:00.003Z,10.60
2019-01-15T18:35:03.245Z,9.90
2019-01-15T18:37:53.125Z,7.30
2019-01-15T18:40:41.332Z,9.90
2019-01-15T18:43:29.706Z,9.73
2019-01-15T18:46:37.522Z,11.30
2019-01-15T18:49:36.022Z,6.90
2019-01-15T18:52:31.657Z,9.37
2019-01-15T18:55:30.194Z,7.90
2019-01-15T18:58:15.783Z,6.80
2019-01-15T19:01:05.546Z,10.27
2019-01-15T19:03:54.202Z,10.17
2019-01-15T19:06:47.113Z,6.20
2019-01-15T19:09:42.710Z,7.83
2019-01-15T19:12:41.395Z,8.83
2019-01-15T19:15:47.017Z,5.80
2019-01-15T19:18:45.612Z,7.93
2019-01-15T19:21:34.121Z,7.70
2019-01-15T19:24:23.725Z,6.70
2019-01-15T19:27:16.189Z,7.90
2019-01-15T19:30:20.851Z,6.27
2019-01-15T19:33:10.273Z,9.97
2019-01-15T19:36:17.888Z,6.50
2019-01-15T19:39:10.546Z,10.03
2019-01-15T19:41:59.169Z,10.47
2019-01-15T19:45:19.157Z,12.37
2019-01-15T19:48:00.609Z,8.60
2019-01-15T19:50:48.947Z,11.03
2019-01-15T19:53:44.608Z,15.13
2019-01-15T19:56:33.261Z,11.33
2019-01-15T19:59:19.872Z,12.83
2019-01-15T20:02:23.714Z,12.50
2019-01-15T20:05:12.434Z,10.67
2019-01-15T20:08:15.423Z,12.67
2019-01-15T20:11:07.763Z,11.90
2019-01-15T20:13:55.834Z,11.50
2019-01-15T20:16:44.510Z,9.73
2019-01-15T20:19:32.681Z,8.47
2019-01-15T20:22:28.828Z,6.97
2019-01-15T20:25:25.369Z,6.53
2019-01-15T20:28:14.853Z,9.13
2019-01-15T20:31:10.886Z,10.20
2019-01-15T20:33:59.602Z,6.77
2019-01-15T20:36:49.200Z,6.47
2019-01-15T20:39:48.307Z,7.37
2019-01-15T20:42:36.754Z,7.23
2019-01-15T20:45:19.771Z,7.30
2019-01-15T20:48:08.027Z,8.80
2019-01-15T20:51:03.214Z,7.90
2019-01-15T20:53:47.779Z,7.67
2019-01-15T20:56:35.993Z,12.33
2019-01-15T20:59:24.371Z,7.87
2019-01-15T21:02:05.452Z,10.10
2019-01-15T21:04:54.103Z,11.20
2019-01-15T21:07:37.944Z,10.40
2019-01-15T21:10:31.717Z,10.40
2019-01-15T21:13:17.913Z,11.73
2019-01-15T21:16:06.465Z,10.30
2019-01-15T21:18:56.449Z,7.73
2019-01-15T21:21:47.155Z,11.40
2019-01-15T21:24:46.252Z,6.97
2019-01-15T21:27:50.644Z,9.10
2019-01-15T21:30:39.637Z,8.00
2019-01-15T21:33:28.088Z,10.73
2019-01-15T21:36:16.765Z,6.33
2019-01-15T21:39:10.535Z,12.80
2019-01-15T21:41:58.729Z,7.33
2019-01-15T21:44:48.864Z,6.50
2019-01-15T21:47:40.018Z,7.13
2019-01-15T21:50:27.826Z,7.77
2019-01-15T21:53:17.297Z,10.00
2019-01-15T21:56:05.632Z,7.03
2019-01-15T21:59:01.433Z,8.10
2019-01-15T22:01:47.834Z,8.40
2019-01-15T22:04:37.925Z,8.90
2019-01-15T22:07:30.774Z,7.70
2019-01-15T22:10:28.337Z,9.80
2019-01-15T22:13:17.706Z,7.77
2019-01-15T22:16:10.663Z,6.90
2019-01-15T22:19:09.351Z,7.80
2019-01-15T22:21:59.213Z,6.40
2019-01-15T22:24:58.334Z,8.30
2019-01-15T22:27:47.089Z,8.07
2019-01-15T22:30:36.052Z,10.03
2019-01-15T22:33:35.048Z,10.03
2019-01-15T22:36:30.869Z,10.10
2019-01-15T22:39:13.254Z,5.27
2019-01-15T22:42:01.830Z,7.63
2019-01-15T22:44:41.675Z,6.93
2019-01-15T22:47:28.105Z,5.40
2019-01-15T22:50:16.526Z,5.70
2019-01-15T22:53:15.318Z,8.83
2019-01-15T22:56:08.290Z,8.57
2019-01-15T22:59:04.298Z,6.77
2019-01-15T23:02:03.519Z,8.90
2019-01-15T23:04:56.354Z,5.70
2019-01-15T23:07:45.108Z,7.10
2019-01-15T23:10:50.969Z,7.40
2019-01-15T23:13:56.007Z,7.73
2019-01-15T23:16:37.080Z,5.43
2019-01-15T23:19:25.735Z,7.20
2019-01-15T23:22:04.471Z,5.90
2019-01-15T23:24:48.195Z,7.53
2019-01-15T23:27:50.160Z,7.33
2019-01-15T23:30:58.577Z,5.43
2019-01-15T23:33:54.249Z,6.27
2019-01-15T23:36:47.868Z,5.47
2019-01-15T23:39:40.515Z,4.87
2019-01-15T23:42:21.591Z,9.30
2019-01-15T23:45:10.348Z,8.03
2019-01-15T23:48:09.509Z,8.83
2019-01-15T23:50:52.898Z,10.00
2019-01-15T23:53:48.598Z,10.93
2019-01-15T23:56:47.492Z,8.60
2019-01-15T23:59:49.981Z,6.07
